Time;durP1;ratioP1;P1;durP2;ratioP2;P2;SDS_P1;SDS_P2;PMS_P1;PMS_P2;Temp;Humidity;BMP_temperature;BMP_pressure;BME280_temperature;BME280_humidity;BME280_pressure;Samples;Min_cycle;Max_cycle;Signal;HPM_P1;HPM_P2
2023/04/08 00:00:44;;;;;;;10.13;4.80;;;5.80;99.90;;;;;;4772119;30;20054;-88
2023/04/08 00:03:09;;;;;;;8.15;4.78;;;5.80;99.90;;;;;;4790522;29;20051;-88
2023/04/08 00:05:35;;;;;;;7.00;4.27;;;5.80;99.90;;;;;;4791685;29;20055;-88
2023/04/08 00:08:01;;;;;;;7.20;4.30;;;5.80;99.90;;;;;;4792221;30;20108;-88
2023/04/08 00:10:27;;;;;;;7.70;4.90;;;5.80;99.90;;;;;;4775544;30;20141;-88
2023/04/08 00:12:52;;;;;;;8.37;4.83;;;5.70;99.90;;;;;;4791419;30;20159;-88
2023/04/08 00:15:18;;;;;;;7.03;4.63;;;5.70;99.90;;;;;;4791567;30;20047;-88
2023/04/08 00:17:44;;;;;;;10.50;5.20;;;5.70;99.90;;;;;;4791455;29;20124;-87
2023/04/08 00:20:10;;;;;;;9.17;4.90;;;5.60;99.90;;;;;;4761442;30;20063;-87
2023/04/08 00:22:36;;;;;;;9.23;5.35;;;5.60;99.90;;;;;;4791253;30;20304;-88
2023/04/08 00:25:05;;;;;;;9.07;5.20;;;5.60;99.90;;;;;;4791089;30;20063;-86
2023/04/08 00:27:31;;;;;;;8.77;5.68;;;5.60;99.90;;;;;;4791867;30;20051;-88
2023/04/08 00:29:59;;;;;;;10.98;5.45;;;5.50;99.90;;;;;;4791376;30;20059;-89
2023/04/08 00:32:25;;;;;;;10.00;5.70;;;5.50;99.90;;;;;;4791992;30;20081;-89
2023/04/08 00:34:51;;;;;;;13.43;6.15;;;5.50;99.90;;;;;;4775529;30;20459;-89
2023/04/08 00:37:17;;;;;;;8.90;5.77;;;5.40;99.90;;;;;;4791285;30;20060;-89
2023/04/08 00:39:42;;;;;;;8.63;5.77;;;5.40;99.90;;;;;;4791184;30;20081;-89
2023/04/08 00:42:08;;;;;;;8.47;5.53;;;5.40;99.90;;;;;;4791007;30;20477;-88
2023/04/08 00:44:34;;;;;;;9.57;5.93;;;5.40;99.90;;;;;;4791171;30;20062;-89
2023/04/08 00:47:00;;;;;;;8.47;5.80;;;5.30;99.90;;;;;;4791017;30;20047;-88
2023/04/08 00:49:26;;;;;;;9.73;6.03;;;5.30;99.90;;;;;;4760297;30;20059;-88
2023/04/08 00:51:53;;;;;;;11.32;6.70;;;5.30;99.90;;;;;;4760101;30;20084;-89
2023/04/08 00:54:19;;;;;;;9.88;6.82;;;5.30;99.90;;;;;;4791557;29;20067;-88
2023/04/08 00:56:45;;;;;;;11.90;6.67;;;5.30;99.90;;;;;;4775424;30;20063;-88
2023/04/08 00:59:11;;;;;;;10.63;6.83;;;5.30;99.90;;;;;;4775752;30;20104;-88
2023/04/08 01:01:46;;;;;;;12.77;7.20;;;5.20;99.90;;;;;;4791141;30;20055;-89
2023/04/08 01:04:33;;;;;;;11.18;7.13;;;5.20;99.90;;;;;;4791350;30;20484;-88
2023/04/08 01:07:13;;;;;;;11.25;7.57;;;5.10;99.90;;;;;;4774769;30;20116;-88
2023/04/08 01:09:44;;;;;;;11.30;7.70;;;5.10;99.90;;;;;;4791659;30;20051;-89
2023/04/08 01:12:14;;;;;;;13.18;7.05;;;5.10;99.90;;;;;;4790849;30;20104;-88
2023/04/08 01:14:44;;;;;;;12.90;7.75;;;5.10;99.90;;;;;;4790807;29;20051;-88
2023/04/08 01:17:10;;;;;;;13.60;7.40;;;5.10;99.90;;;;;;4791039;29;20401;-88
2023/04/08 01:19:41;;;;;;;10.48;7.55;;;5.10;99.90;;;;;;4790632;30;20138;-89
2023/04/08 01:22:27;;;;;;;12.75;8.73;;;5.00;99.90;;;;;;4775152;30;20051;-84
2023/04/08 01:25:01;;;;;;;12.52;8.90;;;5.00;99.90;;;;;;4790594;30;20071;-88
2023/04/08 01:27:30;;;;;;;12.77;9.30;;;5.00;99.90;;;;;;4790949;30;20066;-89
2023/04/08 01:29:58;;;;;;;12.98;9.05;;;5.00;99.90;;;;;;4790517;30;20143;-89
2023/04/08 01:32:26;;;;;;;14.85;8.77;;;5.00;99.90;;;;;;4790366;30;20062;-89
2023/04/08 01:34:53;;;;;;;13.68;9.23;;;4.90;99.90;;;;;;4790579;29;20077;-89
2023/04/08 01:37:19;;;;;;;15.82;9.95;;;4.90;99.90;;;;;;4774182;30;20138;-88
2023/04/08 01:39:47;;;;;;;11.63;9.25;;;4.90;99.90;;;;;;4790323;30;20169;-89
2023/04/08 01:42:14;;;;;;;14.57;9.38;;;4.80;99.90;;;;;;4790378;30;20051;-88
2023/04/08 01:44:41;;;;;;;14.82;9.93;;;4.80;99.90;;;;;;4790201;30;20116;-89
2023/04/08 01:47:09;;;;;;;12.55;9.02;;;4.80;99.90;;;;;;4790104;30;20134;-88
2023/04/08 01:49:35;;;;;;;12.93;8.90;;;4.80;99.90;;;;;;4774904;30;20374;-87
2023/04/08 01:52:03;;;;;;;13.10;9.18;;;4.70;99.90;;;;;;4789961;29;20507;-88
2023/04/08 01:54:29;;;;;;;15.32;9.60;;;4.70;99.90;;;;;;4789942;30;20047;-88
2023/04/08 01:56:57;;;;;;;12.57;9.63;;;4.70;99.90;;;;;;4789993;29;20498;-88
2023/04/08 01:59:25;;;;;;;17.30;10.05;;;4.60;99.90;;;;;;4790045;29;20078;-88
2023/04/08 02:01:52;;;;;;;13.10;9.60;;;4.60;99.90;;;;;;4790272;29;20052;-88
2023/04/08 02:04:17;;;;;;;14.77;10.80;;;4.60;99.90;;;;;;4789915;29;20047;-88
2023/04/08 02:06:44;;;;;;;13.97;10.27;;;4.50;99.90;;;;;;4774099;30;20123;-88
2023/04/08 02:09:10;;;;;;;14.32;10.25;;;4.50;99.90;;;;;;4790076;29;20467;-88
2023/04/08 02:11:35;;;;;;;15.73;10.90;;;4.50;99.90;;;;;;4790167;30;20100;-88
2023/04/08 02:14:01;;;;;;;16.07;9.97;;;4.40;99.90;;;;;;4789634;29;20088;-88
2023/04/08 02:16:52;;;;;;;14.70;9.97;;;4.40;99.90;;;;;;4789517;29;20512;-89
2023/04/08 02:19:28;;;;;;;15.57;9.55;;;4.30;99.90;;;;;;4773697;30;20055;-88
2023/04/08 02:22:05;;;;;;;14.98;10.38;;;4.30;99.90;;;;;;4773154;30;20126;-88
2023/04/08 02:24:32;;;;;;;13.18;9.88;;;4.30;99.90;;;;;;4789458;29;20047;-88
2023/04/08 02:27:00;;;;;;;15.88;10.38;;;4.30;99.90;;;;;;4773492;30;20055;-88
2023/04/08 02:29:28;;;;;;;12.35;10.00;;;4.30;99.90;;;;;;4773407;30;20536;-88
2023/04/08 02:31:55;;;;;;;14.85;10.60;;;4.20;99.90;;;;;;4788961;29;20618;-87
2023/04/08 02:34:22;;;;;;;17.67;11.32;;;4.20;99.90;;;;;;4758534;30;20051;-88
2023/04/08 02:36:50;;;;;;;17.13;11.90;;;4.20;99.90;;;;;;4789464;30;20047;-87
2023/04/08 02:39:16;;;;;;;17.92;11.73;;;4.10;99.90;;;;;;4774123;30;20484;-85
2023/04/08 02:41:42;;;;;;;14.68;10.70;;;4.20;99.90;;;;;;4789005;30;20512;-87
2023/04/08 02:44:08;;;;;;;15.70;11.57;;;4.10;99.90;;;;;;4773330;30;20134;-88
2023/04/08 02:46:34;;;;;;;15.50;11.60;;;4.10;99.90;;;;;;4773446;30;20397;-89
2023/04/08 02:49:00;;;;;;;15.57;10.43;;;4.10;99.90;;;;;;4788971;30;20047;-88
2023/04/08 02:51:26;;;;;;;15.77;11.60;;;4.10;99.90;;;;;;4789038;30;20047;-89
2023/04/08 02:53:52;;;;;;;15.82;11.40;;;4.10;99.90;;;;;;4788976;30;20059;-88
2023/04/08 02:56:20;;;;;;;16.77;12.02;;;4.10;99.90;;;;;;4789294;29;20116;-87
2023/04/08 02:58:46;;;;;;;17.92;12.02;;;4.00;99.90;;;;;;4788896;30;20070;-88
2023/04/08 03:01:12;;;;;;;15.30;11.90;;;4.00;99.90;;;;;;4788921;30;20051;-88
2023/04/08 03:03:38;;;;;;;18.10;12.20;;;4.10;99.90;;;;;;4788845;30;20107;-88
2023/04/08 03:06:03;;;;;;;19.15;13.13;;;4.00;99.90;;;;;;4772886;30;20055;-88
2023/04/08 03:08:29;;;;;;;16.77;12.73;;;4.00;99.90;;;;;;4788595;29;20051;-88
2023/04/08 03:10:55;;;;;;;17.43;12.70;;;4.00;99.90;;;;;;4788782;30;20052;-88
2023/04/08 03:13:20;;;;;;;17.87;12.90;;;4.00;99.90;;;;;;4772921;30;20055;-89
2023/04/08 03:15:46;;;;;;;16.93;11.93;;;4.00;99.90;;;;;;4789272;30;20556;-89
2023/04/08 03:18:12;;;;;;;17.23;12.47;;;4.00;99.90;;;;;;4788737;30;20074;-88
2023/04/08 03:20:38;;;;;;;19.23;14.00;;;3.90;99.90;;;;;;4788726;30;20047;-89
2023/04/08 03:23:03;;;;;;;17.80;13.60;;;4.00;99.90;;;;;;4788609;30;20047;-89
2023/04/08 03:25:30;;;;;;;17.33;13.10;;;4.00;99.90;;;;;;4757989;30;20059;-88
2023/04/08 03:27:57;;;;;;;17.88;13.70;;;3.90;99.90;;;;;;4788665;30;20059;-88
2023/04/08 03:30:23;;;;;;;19.02;14.18;;;3.90;99.90;;;;;;4789327;30;20083;-88
2023/04/08 03:32:49;;;;;;;20.70;14.77;;;3.90;99.90;;;;;;4758209;30;20557;-88
2023/04/08 03:35:14;;;;;;;19.73;13.83;;;3.90;99.90;;;;;;4789082;30;20055;-88
2023/04/08 03:37:40;;;;;;;18.00;13.40;;;3.80;99.90;;;;;;4787704;30;20078;-89
2023/04/08 03:40:07;;;;;;;19.77;14.33;;;3.90;99.90;;;;;;4773449;30;20051;-89
2023/04/08 03:42:33;;;;;;;19.77;14.05;;;3.80;99.90;;;;;;4757863;30;20055;-88
2023/04/08 03:44:59;;;;;;;20.35;14.90;;;3.90;99.90;;;;;;4788678;30;20051;-88
2023/04/08 03:47:26;;;;;;;18.27;14.40;;;3.80;99.90;;;;;;4788345;29;20051;-88
2023/04/08 03:49:54;;;;;;;20.50;15.15;;;3.80;99.90;;;;;;4788191;30;20505;-87
2023/04/08 03:52:20;;;;;;;23.45;15.40;;;3.70;99.90;;;;;;4788291;30;20047;-87
2023/04/08 03:54:46;;;;;;;21.27;14.50;;;3.70;99.90;;;;;;4788351;29;20142;-88
2023/04/08 03:57:12;;;;;;;22.07;15.00;;;3.70;99.90;;;;;;4771746;30;20127;-86
2023/04/08 03:59:39;;;;;;;23.33;15.40;;;3.70;99.90;;;;;;4788232;29;20062;-88
2023/04/08 04:02:05;;;;;;;20.05;14.82;;;3.70;99.90;;;;;;4788288;30;20097;-88
2023/04/08 04:04:31;;;;;;;18.00;14.00;;;3.70;99.90;;;;;;4788187;30;20051;-88
2023/04/08 04:06:57;;;;;;;23.50;16.10;;;3.60;99.90;;;;;;4772564;30;20380;-90
2023/04/08 04:09:22;;;;;;;22.13;15.33;;;3.60;99.90;;;;;;4772718;30;20111;-88
2023/04/08 04:11:48;;;;;;;25.67;15.73;;;3.60;99.90;;;;;;4772310;30;20055;-87
2023/04/08 04:14:14;;;;;;;22.20;16.77;;;3.70;99.90;;;;;;4788855;30;20168;-87
2023/04/08 04:16:40;;;;;;;23.47;15.80;;;3.70;99.90;;;;;;4757410;30;20055;-89
2023/04/08 04:19:05;;;;;;;22.00;15.10;;;3.60;99.90;;;;;;4788174;30;20059;-88
2023/04/08 04:21:31;;;;;;;23.57;16.30;;;3.60;99.90;;;;;;4788042;29;20052;-89
2023/04/08 04:23:57;;;;;;;24.53;17.47;;;3.60;99.90;;;;;;4787990;30;20079;-89
2023/04/08 04:26:22;;;;;;;24.03;16.20;;;3.60;99.90;;;;;;4788158;30;20055;-89
2023/04/08 04:28:48;;;;;;;24.17;16.07;;;3.50;99.90;;;;;;4788370;29;20051;-89
2023/04/08 04:31:19;;;;;;;23.87;16.40;;;3.50;99.90;;;;;;4788191;30;20469;-88
2023/04/08 04:33:46;;;;;;;25.13;16.08;;;3.60;99.90;;;;;;4771964;30;20131;-88
2023/04/08 04:36:12;;;;;;;27.73;17.55;;;3.50;99.90;;;;;;4788580;30;20117;-87
2023/04/08 04:38:37;;;;;;;24.17;17.13;;;3.50;99.90;;;;;;4788980;30;20468;-88
2023/04/08 04:41:03;;;;;;;23.23;16.63;;;3.50;99.90;;;;;;4787781;30;20051;-88
2023/04/08 04:43:29;;;;;;;27.60;18.37;;;3.60;99.90;;;;;;4788641;30;20118;-83
2023/04/08 04:45:55;;;;;;;24.33;18.53;;;3.60;99.90;;;;;;4788034;30;20535;-88
2023/04/08 04:48:22;;;;;;;26.60;18.70;;;3.50;99.90;;;;;;4756987;30;20059;-87
2023/04/08 04:50:55;;;;;;;26.30;18.45;;;3.60;99.90;;;;;;4790958;30;20066;-87
2023/04/08 04:53:21;;;;;;;26.08;17.73;;;3.50;99.90;;;;;;4775876;30;20062;-86
2023/04/08 04:55:46;;;;;;;27.03;18.60;;;3.50;99.90;;;;;;4790808;30;20059;-87
2023/04/08 04:58:12;;;;;;;27.53;19.10;;;3.50;99.90;;;;;;4791002;30;20061;-88
2023/04/08 05:00:38;;;;;;;24.50;18.57;;;3.50;99.90;;;;;;4774927;30;20062;-87
2023/04/08 05:03:03;;;;;;;24.23;17.40;;;3.50;99.90;;;;;;4774675;30;20446;-87
2023/04/08 05:05:29;;;;;;;23.03;17.90;;;3.50;99.90;;;;;;4790633;29;20515;-88
2023/04/08 05:07:55;;;;;;;24.67;18.03;;;3.40;99.90;;;;;;4774503;30;20099;-86
2023/04/08 05:10:21;;;;;;;26.60;17.57;;;3.40;99.90;;;;;;4790901;30;20086;-88
2023/04/08 05:12:46;;;;;;;25.33;18.00;;;3.40;99.90;;;;;;4774923;30;20503;-87
2023/04/08 05:15:12;;;;;;;24.80;19.23;;;3.40;99.90;;;;;;4774522;30;20156;-87
2023/04/08 05:17:38;;;;;;;27.50;19.53;;;3.40;99.90;;;;;;4790391;30;20062;-87
2023/04/08 05:20:04;;;;;;;24.63;17.67;;;3.40;99.90;;;;;;4790737;30;20055;-88
2023/04/08 05:22:30;;;;;;;27.05;19.35;;;3.40;99.90;;;;;;4790370;30;20055;-88
2023/04/08 05:24:55;;;;;;;29.63;19.97;;;3.40;99.90;;;;;;4790394;30;20537;-88
2023/04/08 05:27:21;;;;;;;27.27;19.13;;;3.40;99.90;;;;;;4774527;30;20120;-87
2023/04/08 05:29:47;;;;;;;28.10;21.20;;;3.50;99.90;;;;;;4790398;30;20058;-88
2023/04/08 05:32:13;;;;;;;25.70;19.13;;;3.50;99.90;;;;;;4774568;30;20055;-88
2023/04/08 05:34:38;;;;;;;28.00;20.40;;;3.50;99.90;;;;;;4790750;30;20473;-88
2023/04/08 05:37:04;;;;;;;28.27;20.53;;;3.60;99.90;;;;;;4790405;29;20134;-88
2023/04/08 05:39:30;;;;;;;30.30;20.77;;;3.50;99.90;;;;;;4790344;30;20051;-88
2023/04/08 05:41:55;;;;;;;29.77;19.97;;;3.60;99.90;;;;;;4790497;29;20047;-89
2023/04/08 05:44:21;;;;;;;27.47;20.20;;;3.60;99.90;;;;;;4759347;30;20051;-88
2023/04/08 05:46:47;;;;;;;29.97;21.27;;;3.60;99.90;;;;;;4790247;30;20100;-88
2023/04/08 05:49:13;;;;;;;30.90;21.47;;;3.70;99.90;;;;;;4774423;30;20059;-88
2023/04/08 05:51:39;;;;;;;30.10;20.83;;;3.70;99.90;;;;;;4790086;30;20051;-87
2023/04/08 05:54:04;;;;;;;27.98;20.17;;;3.70;99.90;;;;;;4773858;30;20519;-88
2023/04/08 05:56:31;;;;;;;27.13;20.67;;;3.80;99.90;;;;;;4773730;30;20063;-88
2023/04/08 05:58:57;;;;;;;28.50;20.23;;;3.90;99.90;;;;;;4789882;29;20095;-88
2023/04/08 06:01:22;;;;;;;30.17;21.25;;;3.90;99.90;;;;;;4791362;29;20140;-87
2023/04/08 06:03:48;;;;;;;29.47;21.70;;;4.00;99.90;;;;;;4775088;30;20445;-87
2023/04/08 06:06:14;;;;;;;31.70;21.30;;;3.90;99.90;;;;;;4791046;30;20116;-87
2023/04/08 06:08:40;;;;;;;29.87;21.23;;;3.90;99.90;;;;;;4791986;30;20055;-86
2023/04/08 06:11:06;;;;;;;30.70;22.90;;;4.00;99.90;;;;;;4790491;30;20059;-87
2023/04/08 06:13:32;;;;;;;29.75;21.85;;;4.00;99.90;;;;;;4774481;30;20469;-87
2023/04/08 06:16:08;;;;;;;31.63;22.20;;;4.00;99.90;;;;;;4790870;30;20093;-87
2023/04/08 06:18:34;;;;;;;31.55;22.25;;;4.00;99.90;;;;;;4789837;30;20062;-87
2023/04/08 06:21:00;;;;;;;30.33;21.13;;;4.10;99.90;;;;;;4759725;30;20051;-87
2023/04/08 06:23:25;;;;;;;29.53;21.83;;;4.10;99.90;;;;;;4790195;29;20084;-87
2023/04/08 06:25:52;;;;;;;32.93;22.93;;;4.20;99.90;;;;;;4774069;30;20119;-87
2023/04/08 06:28:18;;;;;;;31.65;23.65;;;4.20;99.90;;;;;;4774627;30;20082;-87
2023/04/08 06:30:44;;;;;;;31.27;23.27;;;4.30;99.90;;;;;;4790058;30;20058;-87
2023/04/08 06:33:09;;;;;;;32.17;23.67;;;4.40;99.90;;;;;;4774245;30;20094;-88
2023/04/08 06:35:36;;;;;;;28.87;23.70;;;4.40;99.90;;;;;;4745718;30;20066;-88
2023/04/08 06:38:03;;;;;;;31.23;22.83;;;4.50;99.90;;;;;;4789390;29;20062;-88
2023/04/08 06:40:29;;;;;;;35.08;24.15;;;4.60;99.90;;;;;;4789093;29;20540;-88
2023/04/08 06:42:54;;;;;;;30.33;21.45;;;4.70;99.90;;;;;;4789258;30;20054;-87
2023/04/08 06:45:20;;;;;;;31.73;23.10;;;4.90;99.90;;;;;;4773474;30;20043;-87
2023/04/08 06:47:46;;;;;;;27.80;21.93;;;5.40;99.90;;;;;;4789010;30;20145;-86
2023/04/08 06:50:12;;;;;;;25.97;19.80;;;6.10;99.90;;;;;;4788981;30;20412;-87
2023/04/08 06:52:37;;;;;;;24.23;19.73;;;6.70;99.90;;;;;;4773529;30;20305;-87
2023/04/08 06:55:04;;;;;;;29.20;20.60;;;6.70;99.90;;;;;;4788850;30;20130;-88
2023/04/08 06:57:29;;;;;;;26.42;20.13;;;6.60;99.90;;;;;;4788796;30;20059;-88
2023/04/08 06:59:56;;;;;;;26.03;20.17;;;6.40;99.90;;;;;;4788610;30;20124;-87
2023/04/08 07:02:22;;;;;;;26.00;20.50;;;6.20;99.90;;;;;;4788781;30;20047;-87
2023/04/08 07:04:48;;;;;;;28.15;21.92;;;6.10;99.90;;;;;;4773135;30;20143;-87
2023/04/08 07:07:14;;;;;;;25.65;20.00;;;6.00;99.90;;;;;;4788960;29;20056;-87
2023/04/08 07:09:42;;;;;;;26.87;20.83;;;5.90;99.90;;;;;;4773026;30;20059;-88
2023/04/08 07:12:07;;;;;;;24.98;20.30;;;5.90;99.90;;;;;;4788321;30;20289;-88
2023/04/08 07:14:33;;;;;;;27.43;20.13;;;5.90;99.90;;;;;;4789166;29;20051;-88
2023/04/08 07:16:59;;;;;;;25.90;19.70;;;5.90;99.90;;;;;;4789348;29;20134;-87
2023/04/08 07:19:25;;;;;;;28.37;20.97;;;6.00;99.90;;;;;;4788772;29;20055;-88
2023/04/08 07:21:51;;;;;;;27.60;20.00;;;6.40;99.90;;;;;;4788647;30;20051;-87
2023/04/08 07:24:17;;;;;;;26.77;20.10;;;6.90;99.90;;;;;;4758021;30;20373;-87
2023/04/08 07:26:44;;;;;;;28.85;20.33;;;7.10;99.90;;;;;;4772641;30;20059;-87
2023/04/08 07:29:10;;;;;;;28.58;20.10;;;7.10;99.90;;;;;;4788556;29;20051;-88
2023/04/08 07:31:35;;;;;;;26.23;19.43;;;7.00;99.90;;;;;;4772718;30;20059;-88
2023/04/08 07:34:01;;;;;;;25.27;20.17;;;6.80;99.90;;;;;;4772332;30;20663;-82
2023/04/08 07:36:27;;;;;;;26.30;20.73;;;6.80;99.90;;;;;;4788549;30;20077;-86
2023/04/08 07:38:53;;;;;;;26.70;19.87;;;6.70;99.90;;;;;;4757660;30;20083;-84
2023/04/08 07:41:19;;;;;;;26.27;20.00;;;6.70;99.90;;;;;;4788256;30;20054;-86
2023/04/08 07:43:45;;;;;;;25.90;20.48;;;6.70;99.90;;;;;;4788322;30;20055;-86
2023/04/08 07:46:11;;;;;;;25.67;19.27;;;6.70;99.90;;;;;;4788171;30;20112;-86
2023/04/08 07:48:37;;;;;;;25.20;19.30;;;6.70;99.90;;;;;;4772146;30;20109;-87
2023/04/08 07:51:04;;;;;;;23.52;18.58;;;6.80;99.90;;;;;;4788392;30;20059;-84
2023/04/08 07:53:30;;;;;;;25.45;19.08;;;6.90;99.90;;;;;;4757579;30;20058;-84
2023/04/08 07:55:56;;;;;;;22.50;17.57;;;7.00;99.90;;;;;;4757889;29;20059;-84
2023/04/08 07:58:23;;;;;;;24.50;18.02;;;7.00;99.90;;;;;;4772268;30;20309;-85
2023/04/08 08:00:49;;;;;;;23.25;18.00;;;7.20;99.90;;;;;;4788998;30;20066;-84
2023/04/08 08:03:15;;;;;;;23.10;18.13;;;7.30;99.90;;;;;;4788017;30;20107;-85
2023/04/08 08:05:41;;;;;;;23.47;18.83;;;7.50;99.90;;;;;;4757591;30;20051;-85
2023/04/08 08:08:10;;;;;;;22.80;18.70;;;7.50;99.90;;;;;;4788180;30;20055;-84
2023/04/08 08:10:38;;;;;;;22.33;16.85;;;7.60;99.90;;;;;;4787988;30;20500;-85
2023/04/08 08:13:05;;;;;;;26.45;18.30;;;7.60;99.90;;;;;;4788064;30;20056;-84
2023/04/08 08:15:31;;;;;;;23.30;17.90;;;7.70;99.90;;;;;;4772200;30;20116;-86
2023/04/08 08:17:57;;;;;;;23.90;18.55;;;7.70;99.90;;;;;;4788441;30;20051;-85
2023/04/08 08:20:23;;;;;;;22.63;18.53;;;7.90;99.90;;;;;;4772227;30;20130;-85
2023/04/08 08:22:48;;;;;;;23.93;18.53;;;8.00;99.90;;;;;;4788705;29;20051;-84
2023/04/08 08:25:14;;;;;;;23.77;18.63;;;8.00;99.90;;;;;;4791496;30;20051;-84
2023/04/08 08:27:41;;;;;;;22.17;17.87;;;8.00;99.90;;;;;;4760704;30;20143;-85
2023/04/08 08:30:08;;;;;;;23.37;17.33;;;8.00;99.90;;;;;;4791788;29;20113;-85
2023/04/08 08:32:34;;;;;;;23.33;17.60;;;8.00;99.90;;;;;;4776104;30;20297;-85
2023/04/08 08:35:00;;;;;;;19.98;15.43;;;8.00;99.90;;;;;;4792194;30;20619;-84
2023/04/08 08:37:26;;;;;;;21.27;16.40;;;8.10;99.90;;;;;;4791312;30;20058;-84
2023/04/08 08:39:52;;;;;;;23.23;16.63;;;8.20;99.90;;;;;;4791185;30;20689;-86
2023/04/08 08:42:22;;;;;;;19.63;15.97;;;8.20;99.90;;;;;;4791748;30;20146;-86
2023/04/08 08:44:48;;;;;;;20.43;15.47;;;8.30;99.90;;;;;;4791455;30;20112;-86
2023/04/08 08:47:17;;;;;;;20.93;15.77;;;8.40;99.90;;;;;;4791466;30;20289;-87
2023/04/08 08:49:44;;;;;;;22.03;15.50;;;8.50;99.90;;;;;;4760353;30;20293;-86
2023/04/08 08:52:10;;;;;;;17.17;14.60;;;8.70;99.90;;;;;;4790974;30;20296;-86
2023/04/08 08:54:36;;;;;;;18.87;14.50;;;8.80;99.90;;;;;;4791153;29;20297;-85
2023/04/08 08:57:02;;;;;;;17.67;14.60;;;8.80;99.90;;;;;;4774803;30;20292;-86
2023/04/08 08:59:28;;;;;;;16.60;13.10;;;8.70;99.90;;;;;;4760377;30;20369;-85
2023/04/08 09:01:54;;;;;;;17.53;14.17;;;8.70;99.90;;;;;;4790462;30;20047;-86
2023/04/08 09:04:21;;;;;;;17.60;13.00;;;8.70;99.90;;;;;;4760133;30;20057;-84
2023/04/08 09:06:49;;;;;;;15.93;12.33;;;8.70;99.90;;;;;;4760865;30;20055;-85
2023/04/08 09:09:16;;;;;;;16.23;12.63;;;8.70;99.90;;;;;;4759939;30;20315;-85
2023/04/08 09:11:44;;;;;;;15.43;11.60;;;8.70;99.90;;;;;;4790766;30;20371;-78
2023/04/08 09:14:17;;;;;;;15.40;11.57;;;8.70;99.90;;;;;;4790452;30;20289;-80
2023/04/08 09:16:43;;;;;;;13.43;10.80;;;8.70;99.90;;;;;;4790461;30;20290;-81
2023/04/08 09:19:10;;;;;;;15.77;10.67;;;8.70;99.90;;;;;;4790467;30;20635;-81
2023/04/08 09:21:37;;;;;;;13.23;9.20;;;8.70;99.90;;;;;;4790829;29;20331;-81
2023/04/08 09:24:03;;;;;;;11.57;9.07;;;8.70;99.90;;;;;;4790582;30;20308;-77
2023/04/08 09:26:29;;;;;;;12.80;8.87;;;8.70;99.90;;;;;;4790362;30;20766;-84
2023/04/08 09:29:06;;;;;;;11.23;8.67;;;8.80;99.90;;;;;;4790230;30;20337;-80
2023/04/08 09:31:36;;;;;;;12.80;8.70;;;8.90;99.90;;;;;;4790237;30;20130;-79
2023/04/08 09:34:10;;;;;;;13.93;9.07;;;8.90;99.90;;;;;;4790156;29;20323;-80
2023/04/08 09:36:36;;;;;;;11.10;9.00;;;9.00;99.90;;;;;;4790351;30;20289;-79
2023/04/08 09:39:02;;;;;;;12.07;8.87;;;9.10;99.90;;;;;;4790125;30;20325;-81
2023/04/08 09:41:31;;;;;;;11.13;8.67;;;9.00;99.90;;;;;;4774574;30;20313;-80
2023/04/08 09:43:59;;;;;;;14.07;9.60;;;9.00;99.90;;;;;;4790584;29;20829;-79
2023/04/08 09:46:49;;;;;;;12.00;9.03;;;9.00;99.90;;;;;;4789989;30;20350;-82
2023/04/08 09:49:28;;;;;;;12.47;9.70;;;9.10;99.90;;;;;;4789888;30;20293;-80
2023/04/08 09:52:01;;;;;;;12.60;8.87;;;9.20;99.90;;;;;;4789877;30;20319;-82
2023/04/08 09:55:00;;;;;;;13.03;8.90;;;9.20;99.90;;;;;;4773767;30;20369;-82
2023/04/08 09:57:50;;;;;;;11.13;8.67;;;9.10;99.90;;;;;;4773483;30;20305;-82
2023/04/08 10:00:16;;;;;;;14.03;9.20;;;9.10;99.90;;;;;;4790319;30;20725;-83
2023/04/08 10:03:00;;;;;;;14.77;10.07;;;8.90;99.90;;;;;;4790164;30;20341;-80
2023/04/08 10:05:26;;;;;;;13.47;10.33;;;8.80;99.90;;;;;;4790130;30;20304;-78
2023/04/08 10:07:54;;;;;;;14.17;9.03;;;8.80;99.90;;;;;;4758933;30;20379;-77
2023/04/08 10:10:21;;;;;;;13.53;9.70;;;8.70;99.90;;;;;;4789954;30;20296;-74
2023/04/08 10:12:48;;;;;;;13.13;8.77;;;8.70;99.90;;;;;;4790243;30;20285;-85
2023/04/08 10:15:25;;;;;;;13.73;9.20;;;8.70;99.90;;;;;;4773702;30;20297;-82
2023/04/08 10:18:17;;;;;;;11.83;9.17;;;8.60;99.90;;;;;;4773488;30;20347;-83
2023/04/08 10:20:46;;;;;;;14.57;9.93;;;8.70;99.90;;;;;;4765664;30;20819;-81
2023/04/08 10:23:16;;;;;;;12.90;9.73;;;8.70;99.90;;;;;;4790037;30;20312;-80
2023/04/08 10:25:47;;;;;;;13.30;9.87;;;8.70;99.90;;;;;;4790133;30;20305;-77
2023/04/08 10:28:19;;;;;;;13.67;10.10;;;8.70;99.90;;;;;;4789163;29;20297;-78
2023/04/08 10:30:45;;;;;;;13.87;10.40;;;8.70;99.90;;;;;;4789162;29;20331;-82
2023/04/08 10:33:14;;;;;;;13.37;9.80;;;8.70;99.90;;;;;;4789187;30;20380;-81
2023/04/08 10:35:52;;;;;;;13.73;10.17;;;8.80;99.90;;;;;;4789233;30;20418;-80
2023/04/08 10:38:18;;;;;;;13.80;8.93;;;8.80;99.90;;;;;;4774006;30;20339;-78
2023/04/08 10:40:44;;;;;;;17.20;11.10;;;8.80;99.90;;;;;;4773669;30;20285;-79
2023/04/08 10:43:12;;;;;;;14.23;11.23;;;8.80;99.90;;;;;;4772940;30;20822;-83
2023/04/08 10:45:39;;;;;;;15.03;11.37;;;8.80;99.90;;;;;;4789042;29;20709;-85
2023/04/08 10:48:11;;;;;;;15.40;11.73;;;8.70;99.90;;;;;;4789542;30;20325;-84
2023/04/08 10:50:37;;;;;;;13.50;10.67;;;8.80;99.90;;;;;;4789027;30;20297;-86
2023/04/08 10:53:04;;;;;;;13.57;10.63;;;8.80;99.90;;;;;;4788961;30;20285;-84
2023/04/08 10:55:31;;;;;;;14.13;11.33;;;8.80;99.90;;;;;;4772943;30;20090;-84
2023/04/08 10:58:10;;;;;;;17.23;12.47;;;8.80;99.90;;;;;;4789031;30;20289;-84
2023/04/08 11:00:37;;;;;;;15.03;11.27;;;8.70;99.90;;;;;;4772993;30;20624;-84
2023/04/08 11:03:05;;;;;;;14.70;11.37;;;8.70;99.90;;;;;;4788731;30;20357;-78
2023/04/08 11:05:31;;;;;;;15.07;11.50;;;8.70;99.90;;;;;;4788788;30;20289;-86
2023/04/08 11:07:58;;;;;;;16.30;11.87;;;8.70;99.90;;;;;;4788839;29;20649;-81
2023/04/08 11:10:25;;;;;;;15.70;11.60;;;8.70;99.90;;;;;;4788714;30;20300;-82
2023/04/08 11:12:55;;;;;;;14.27;10.73;;;8.80;99.90;;;;;;4788632;29;20449;-82
2023/04/08 11:15:23;;;;;;;15.30;11.90;;;8.80;99.90;;;;;;4788324;30;20778;-81
2023/04/08 11:17:49;;;;;;;16.30;11.13;;;8.70;99.90;;;;;;4772795;30;20381;-83
2023/04/08 11:20:16;;;;;;;16.67;12.60;;;8.80;99.90;;;;;;4788523;30;20293;-82
2023/04/08 11:22:43;;;;;;;17.30;12.40;;;8.80;99.90;;;;;;4788446;30;20346;-86
2023/04/08 11:25:09;;;;;;;16.30;11.87;;;8.80;99.90;;;;;;4788478;30;20288;-84
2023/04/08 11:27:35;;;;;;;15.40;11.33;;;8.90;99.90;;;;;;4772554;30;20284;-87
2023/04/08 11:30:01;;;;;;;14.17;10.57;;;8.90;99.90;;;;;;4788288;30;20293;-87
2023/04/08 11:32:30;;;;;;;14.87;11.03;;;8.90;99.90;;;;;;4788321;30;20630;-79
2023/04/08 11:35:00;;;;;;;17.53;12.17;;;8.90;99.90;;;;;;4788181;30;20297;-79
2023/04/08 11:37:26;;;;;;;18.43;12.90;;;8.90;99.90;;;;;;4788301;30;20346;-78
2023/04/08 11:39:55;;;;;;;16.73;13.23;;;8.90;99.90;;;;;;4772286;30;20284;-78
2023/04/08 11:42:31;;;;;;;15.70;13.17;;;9.00;99.90;;;;;;4788298;30;20135;-77
2023/04/08 11:44:58;;;;;;;19.77;13.47;;;9.00;99.90;;;;;;4788077;29;20735;-87
2023/04/08 11:47:33;;;;;;;15.93;12.53;;;9.00;99.90;;;;;;4788807;30;20690;-87
2023/04/08 11:50:00;;;;;;;17.13;12.57;;;9.10;99.90;;;;;;4789031;30;20292;-87
2023/04/08 11:52:46;;;;;;;17.57;13.17;;;9.10;99.90;;;;;;4788218;29;20292;-86
2023/04/08 11:55:22;;;;;;;19.73;14.47;;;9.20;99.90;;;;;;4788751;30;20297;-87
2023/04/08 11:57:48;;;;;;;19.30;14.23;;;9.30;99.90;;;;;;4789247;29;20335;-86
2023/04/08 12:00:14;;;;;;;18.97;14.47;;;9.30;99.90;;;;;;4791887;30;20289;-86
2023/04/08 12:02:40;;;;;;;20.17;14.97;;;9.40;99.90;;;;;;4791771;30;20039;-87
2023/04/08 12:05:06;;;;;;;19.07;14.40;;;9.40;99.90;;;;;;4791791;30;20405;-87
2023/04/08 12:07:32;;;;;;;17.27;13.23;;;9.40;99.90;;;;;;4791727;30;20770;-76
2023/04/08 12:09:58;;;;;;;19.47;14.40;;;9.50;99.90;;;;;;4791736;30;20289;-76
2023/04/08 12:12:23;;;;;;;19.73;14.47;;;9.50;99.90;;;;;;4791829;30;20054;-81
2023/04/08 12:14:49;;;;;;;19.17;13.57;;;9.50;99.90;;;;;;4775601;30;20055;-80
2023/04/08 12:17:15;;;;;;;21.13;15.13;;;9.50;99.90;;;;;;4791759;29;20131;-76
2023/04/08 12:19:41;;;;;;;20.03;14.47;;;9.50;99.90;;;;;;4792033;29;20054;-77
2023/04/08 12:22:07;;;;;;;17.63;13.40;;;9.60;99.90;;;;;;4776002;30;20308;-85
2023/04/08 12:24:32;;;;;;;20.90;14.33;;;9.50;99.90;;;;;;4791432;30;20051;-82
2023/04/08 12:26:58;;;;;;;21.80;14.90;;;9.50;99.90;;;;;;4792201;30;20137;-82
2023/04/08 12:29:24;;;;;;;23.00;15.00;;;9.50;99.90;;;;;;4791416;30;20442;-82
2023/04/08 12:31:50;;;;;;;22.83;16.10;;;9.50;99.90;;;;;;4775264;30;20570;-84
2023/04/08 12:34:16;;;;;;;23.10;15.00;;;9.50;99.90;;;;;;4791317;30;20059;-84
2023/04/08 12:36:43;;;;;;;23.30;15.90;;;9.60;99.90;;;;;;4791295;30;20293;-83
2023/04/08 12:39:09;;;;;;;24.97;15.90;;;9.60;99.90;;;;;;4760743;30;20297;-83
2023/04/08 12:41:35;;;;;;;20.57;14.40;;;9.60;99.90;;;;;;4791576;30;20628;-84